Terminal Aerodrome Forecast
Issued by NWS

Home | Current Version | Previous Version | Text Only | Print | Product List | Glossary On
Versions: 1 2 3 4 5 6 7 8 9 10 11 12
000
FTUS46 KHNX 311120
TAFMER
TAF
KMER 311120Z 3112/0112 34005KT P6SM FEW200
     FM311700 32010G15KT P6SM SKC
     FM010600 34005KT P6SM SKC=

USA.gov is the U.S. government's official web portal to all federal, state and local government web resources and services.